Wakefield, Canada
Current Conditions -  °F | °C
As of 8:00 PM on Saturday 25 Oct 2014 (Local Time) from CYND Reporting Station
Broken Clouds Broken Clouds  
Wind Chill: 46°   Ceiling: 3000
Heat Index: 48°   Visibility: 15mi
Dew Point: 46°   Wind: 5mph
Humidity: 93%   Direction: 260°W
Pressure: 29.44"   Gusts: NA
Location:  45.63°N, 75.93°W
Report Text: CYND 260000Z 26004KT 15SM BKN030 BKN220 09/08 A2944 RMK SC5CI1 SLP971
Loading
Personal Weather Stations






























Interactive Weather Map
Tropical Storm Tracking
New forecast layout! Learn more

10-Day Weather Forecast

Advertisements
Track Severe Weather on mobile